SWA8 KCRP-KHOU
Flight info
| Callsign | SWA8 |
|---|---|
| Flight time | 0h 36m |
| Altitude | 19000 |
| Route | CRP BELLR6 |
| Aircraft | B738/M-SDE2E3FGHIRWXY/LB1 |
Departure
| Time | 2026-04-30 11:35 |
|---|---|
| Airport | Corpus Christi International Airport (KCRP) |
Arrival
| Time | 2026-04-30 12:12 |
|---|---|
| Airport | William P. Hobby Airport (KHOU) |
| Time | Latitude | Longitude | Altitude | Speed | Heading |
|---|---|---|---|---|---|
| 2026-04-30 11:17 | 27.77311 | -97.50204 | 52 ft | 0 kts | 54° |
| 2026-04-30 11:26 | 27.77294 | -97.50224 | 50 ft | 2 kts | 35° |
| 2026-04-30 11:26 | 27.77280 | -97.50232 | 51 ft | 2 kts | 7° |
| 2026-04-30 11:26 | 27.77264 | -97.50229 | 47 ft | 2 kts | 320° |
| 2026-04-30 11:27 | 27.77255 | -97.50216 | 46 ft | 1 kts | 282° |
| 2026-04-30 11:27 | 27.77254 | -97.50213 | 46 ft | 0 kts | 276° |
| 2026-04-30 11:30 | 27.77255 | -97.50218 | 47 ft | 1 kts | 276° |
| 2026-04-30 11:30 | 27.77256 | -97.50254 | 50 ft | 11 kts | 272° |
| 2026-04-30 11:30 | 27.77227 | -97.50377 | 48 ft | 19 kts | 226° |
| 2026-04-30 11:31 | 27.77178 | -97.50434 | 45 ft | 6 kts | 234° |
| 2026-04-30 11:31 | 27.77179 | -97.50496 | 49 ft | 12 kts | 302° |
| 2026-04-30 11:31 | 27.77244 | -97.50576 | 49 ft | 17 kts | 315° |
| 2026-04-30 11:31 | 27.77348 | -97.50685 | 50 ft | 24 kts | 316° |
| 2026-04-30 11:32 | 27.77479 | -97.50829 | 55 ft | 28 kts | 316° |
| 2026-04-30 11:32 | 27.77637 | -97.51002 | 52 ft | 34 kts | 315° |
| 2026-04-30 11:32 | 27.77719 | -97.51143 | 51 ft | 15 kts | 273° |
| 2026-04-30 11:33 | 27.77717 | -97.51212 | 50 ft | 0 kts | 266° |
| 2026-04-30 11:33 | 27.77715 | -97.51249 | 49 ft | 15 kts | 266° |
| 2026-04-30 11:33 | 27.77686 | -97.51314 | 47 ft | 3 kts | 172° |
| 2026-04-30 11:33 | 27.77675 | -97.51306 | 48 ft | 0 kts | 137° |
| 2026-04-30 11:34 | 27.77652 | -97.51282 | 49 ft | 25 kts | 137° |
| 2026-04-30 11:34 | 27.77335 | -97.50937 | 53 ft | 102 kts | 136° |
| 2026-04-30 11:35 | 27.76657 | -97.50201 | 64 ft | 165 kts | 135° |
| 2026-04-30 11:35 | 27.75771 | -97.49255 | 725 ft | 173 kts | 136° |
| 2026-04-30 11:35 | 27.75116 | -97.48199 | 1762 ft | 167 kts | 103° |
| 2026-04-30 11:35 | 27.75352 | -97.46878 | 2342 ft | 191 kts | 57° |
| 2026-04-30 11:36 | 27.76534 | -97.45978 | 2607 ft | 225 kts | 14° |
| 2026-04-30 11:36 | 27.78164 | -97.46135 | 2840 ft | 248 kts | 342° |
| 2026-04-30 11:36 | 27.79842 | -97.46728 | 3270 ft | 263 kts | 346° |
| 2026-04-30 11:36 | 27.81721 | -97.47010 | 3680 ft | 279 kts | 0° |
| 2026-04-30 11:37 | 27.83672 | -97.46812 | 4464 ft | 282 kts | 11° |
| 2026-04-30 11:37 | 27.85581 | -97.46296 | 5266 ft | 285 kts | 17° |
| 2026-04-30 11:37 | 27.87496 | -97.45622 | 6064 ft | 289 kts | 19° |
| 2026-04-30 11:37 | 27.89412 | -97.44894 | 6820 ft | 292 kts | 19° |
| 2026-04-30 11:38 | 27.91228 | -97.43888 | 7576 ft | 292 kts | 37° |
| 2026-04-30 11:38 | 27.92820 | -97.42498 | 8357 ft | 293 kts | 39° |
| 2026-04-30 11:38 | 27.94416 | -97.41043 | 9110 ft | 297 kts | 40° |
| 2026-04-30 11:38 | 27.96031 | -97.39562 | 9834 ft | 301 kts | 39° |
| 2026-04-30 11:39 | 27.97678 | -97.38057 | 10396 ft | 310 kts | 39° |
| 2026-04-30 11:39 | 27.99419 | -97.36474 | 10651 ft | 330 kts | 38° |
| 2026-04-30 11:39 | 28.01239 | -97.34828 | 11149 ft | 339 kts | 38° |
| 2026-04-30 11:39 | 28.03097 | -97.33154 | 11775 ft | 344 kts | 37° |
| 2026-04-30 11:40 | 28.04980 | -97.31459 | 12440 ft | 347 kts | 37° |
| 2026-04-30 11:40 | 28.06883 | -97.29749 | 13082 ft | 352 kts | 36° |
| 2026-04-30 11:40 | 28.08814 | -97.28015 | 13722 ft | 357 kts | 36° |
| 2026-04-30 11:40 | 28.10771 | -97.26258 | 14276 ft | 362 kts | 36° |
| 2026-04-30 11:41 | 28.12752 | -97.24478 | 14879 ft | 364 kts | 36° |
| 2026-04-30 11:41 | 28.14709 | -97.22716 | 15912 ft | 352 kts | 35° |
| 2026-04-30 11:41 | 28.16596 | -97.21014 | 16899 ft | 344 kts | 34° |
| 2026-04-30 11:41 | 28.18468 | -97.19329 | 17591 ft | 346 kts | 33° |
| 2026-04-30 11:42 | 28.20362 | -97.17627 | 18161 ft | 351 kts | 33° |
| 2026-04-30 11:42 | 28.22279 | -97.15905 | 18665 ft | 355 kts | 33° |
| 2026-04-30 11:42 | 28.24238 | -97.14142 | 19223 ft | 358 kts | 33° |
| 2026-04-30 11:42 | 28.25533 | -97.12975 | 19594 ft | 360 kts | 33° |
| 2026-04-30 11:43 | 28.28163 | -97.10604 | 20325 ft | 364 kts | 33° |
| 2026-04-30 11:43 | 28.29477 | -97.09419 | 20675 ft | 366 kts | 33° |
| 2026-04-30 11:43 | 28.32133 | -97.07020 | 21404 ft | 369 kts | 32° |
| 2026-04-30 11:43 | 28.34151 | -97.05198 | 21927 ft | 373 kts | 32° |
| 2026-04-30 11:44 | 28.35526 | -97.03955 | 22273 ft | 375 kts | 32° |
| 2026-04-30 11:44 | 28.38242 | -97.01499 | 22944 ft | 379 kts | 32° |
| 2026-04-30 11:44 | 28.39616 | -97.00256 | 23286 ft | 382 kts | 32° |
| 2026-04-30 11:44 | 28.41706 | -96.98363 | 23721 ft | 385 kts | 32° |
| 2026-04-30 11:45 | 28.43805 | -96.96463 | 24143 ft | 388 kts | 32° |
| 2026-04-30 11:45 | 28.45928 | -96.94540 | 24562 ft | 391 kts | 33° |
| 2026-04-30 11:45 | 28.48061 | -96.92607 | 24975 ft | 394 kts | 33° |
| 2026-04-30 11:45 | 28.50215 | -96.90657 | 25380 ft | 397 kts | 33° |
| 2026-04-30 11:46 | 28.52386 | -96.88690 | 25771 ft | 400 kts | 33° |
| 2026-04-30 11:46 | 28.54560 | -96.86718 | 26168 ft | 403 kts | 33° |
| 2026-04-30 11:46 | 28.56777 | -96.84708 | 26265 ft | 413 kts | 33° |
| 2026-04-30 11:46 | 28.59049 | -96.82647 | 26343 ft | 423 kts | 33° |
| 2026-04-30 11:47 | 28.61383 | -96.80529 | 25687 ft | 438 kts | 33° |
| 2026-04-30 11:47 | 28.63756 | -96.78364 | 25289 ft | 435 kts | 33° |
| 2026-04-30 11:47 | 28.66095 | -96.76230 | 24849 ft | 433 kts | 33° |
| 2026-04-30 11:47 | 28.68450 | -96.74084 | 24401 ft | 431 kts | 33° |
| 2026-04-30 11:48 | 28.70794 | -96.71949 | 23959 ft | 430 kts | 33° |
| 2026-04-30 11:48 | 28.73096 | -96.69849 | 23532 ft | 429 kts | 33° |
| 2026-04-30 11:48 | 28.75417 | -96.67732 | 23044 ft | 427 kts | 33° |
| 2026-04-30 11:48 | 28.77758 | -96.65595 | 22599 ft | 423 kts | 33° |
| 2026-04-30 11:49 | 28.80024 | -96.63524 | 22187 ft | 420 kts | 33° |
| 2026-04-30 11:49 | 28.82282 | -96.61451 | 21779 ft | 417 kts | 34° |
| 2026-04-30 11:49 | 28.84474 | -96.59291 | 21374 ft | 415 kts | 37° |
| 2026-04-30 11:49 | 28.86601 | -96.57082 | 21022 ft | 411 kts | 38° |
| 2026-04-30 11:50 | 28.88658 | -96.54900 | 20996 ft | 398 kts | 38° |
| 2026-04-30 11:50 | 28.90657 | -96.52773 | 20977 ft | 385 kts | 37° |
| 2026-04-30 11:50 | 28.92584 | -96.50732 | 20972 ft | 371 kts | 37° |
| 2026-04-30 11:50 | 28.94446 | -96.48768 | 20584 ft | 362 kts | 37° |
| 2026-04-30 11:51 | 28.96373 | -96.46760 | 19384 ft | 383 kts | 37° |
| 2026-04-30 11:51 | 28.98374 | -96.44680 | 18444 ft | 393 kts | 37° |
| 2026-04-30 11:51 | 29.00329 | -96.42632 | 18315 ft | 375 kts | 37° |
| 2026-04-30 11:51 | 29.02235 | -96.40634 | 17933 ft | 367 kts | 37° |
| 2026-04-30 11:52 | 29.04093 | -96.38685 | 17564 ft | 358 kts | 37° |
| 2026-04-30 11:52 | 29.05911 | -96.36781 | 17205 ft | 349 kts | 37° |
| 2026-04-30 11:52 | 29.07665 | -96.34943 | 16869 ft | 343 kts | 37° |
| 2026-04-30 11:52 | 29.09414 | -96.33112 | 16535 ft | 338 kts | 37° |
| 2026-04-30 11:53 | 29.11142 | -96.31303 | 16209 ft | 337 kts | 38° |
| 2026-04-30 11:53 | 29.12898 | -96.29468 | 15941 ft | 349 kts | 38° |
| 2026-04-30 11:53 | 29.14724 | -96.27562 | 15617 ft | 359 kts | 38° |
| 2026-04-30 11:53 | 29.16571 | -96.25625 | 15254 ft | 360 kts | 38° |
| 2026-04-30 11:54 | 29.18411 | -96.23689 | 14898 ft | 358 kts | 39° |
| 2026-04-30 11:54 | 29.20241 | -96.21763 | 14524 ft | 358 kts | 39° |
| 2026-04-30 11:54 | 29.22068 | -96.19841 | 14176 ft | 356 kts | 39° |
| 2026-04-30 11:54 | 29.23899 | -96.17914 | 13800 ft | 356 kts | 39° |
| 2026-04-30 11:55 | 29.25715 | -96.16002 | 13427 ft | 354 kts | 40° |
| 2026-04-30 11:55 | 29.27499 | -96.14122 | 13079 ft | 352 kts | 40° |
| 2026-04-30 11:55 | 29.29295 | -96.12230 | 12715 ft | 350 kts | 39° |
| 2026-04-30 11:55 | 29.31068 | -96.10360 | 12561 ft | 341 kts | 39° |
| 2026-04-30 11:56 | 29.32779 | -96.08524 | 12373 ft | 334 kts | 43° |
| 2026-04-30 11:56 | 29.34291 | -96.06519 | 12164 ft | 330 kts | 49° |
| 2026-04-30 11:56 | 29.35687 | -96.04446 | 11851 ft | 328 kts | 50° |
| 2026-04-30 11:56 | 29.37060 | -96.02365 | 11540 ft | 326 kts | 50° |
| 2026-04-30 11:57 | 29.38432 | -96.00307 | 11226 ft | 324 kts | 49° |
| 2026-04-30 11:57 | 29.39806 | -95.98271 | 10911 ft | 322 kts | 49° |
| 2026-04-30 11:57 | 29.41182 | -95.96252 | 10594 ft | 320 kts | 48° |
| 2026-04-30 11:57 | 29.42537 | -95.94272 | 10278 ft | 318 kts | 48° |
| 2026-04-30 11:58 | 29.43889 | -95.92303 | 10130 ft | 310 kts | 48° |
| 2026-04-30 11:58 | 29.45212 | -95.90375 | 9950 ft | 304 kts | 48° |
| 2026-04-30 11:58 | 29.46499 | -95.88500 | 9923 ft | 292 kts | 47° |
| 2026-04-30 11:58 | 29.47748 | -95.86613 | 9432 ft | 299 kts | 50° |
| 2026-04-30 11:59 | 29.48944 | -95.84663 | 9072 ft | 300 kts | 52° |
| 2026-04-30 11:59 | 29.50125 | -95.82702 | 8770 ft | 299 kts | 52° |
| 2026-04-30 11:59 | 29.51306 | -95.80739 | 8471 ft | 298 kts | 52° |
| 2026-04-30 11:59 | 29.52486 | -95.78786 | 8156 ft | 297 kts | 52° |
| 2026-04-30 12:00 | 29.53661 | -95.76846 | 7859 ft | 296 kts | 53° |
| 2026-04-30 12:00 | 29.54833 | -95.74914 | 7562 ft | 295 kts | 53° |
| 2026-04-30 12:00 | 29.55990 | -95.73009 | 7261 ft | 294 kts | 53° |
| 2026-04-30 12:00 | 29.57159 | -95.71084 | 6974 ft | 293 kts | 54° |
| 2026-04-30 12:01 | 29.58323 | -95.69168 | 6734 ft | 290 kts | 54° |
| 2026-04-30 12:01 | 29.59462 | -95.67292 | 6593 ft | 283 kts | 54° |
| 2026-04-30 12:01 | 29.60577 | -95.65455 | 6462 ft | 276 kts | 54° |
| 2026-04-30 12:01 | 29.61661 | -95.63668 | 6342 ft | 269 kts | 54° |
| 2026-04-30 12:02 | 29.62719 | -95.61923 | 6220 ft | 263 kts | 55° |
| 2026-04-30 12:02 | 29.63757 | -95.60216 | 6054 ft | 258 kts | 54° |
| 2026-04-30 12:02 | 29.64906 | -95.58689 | 6002 ft | 250 kts | 45° |
| 2026-04-30 12:02 | 29.66137 | -95.57304 | 6022 ft | 243 kts | 42° |
| 2026-04-30 12:03 | 29.67485 | -95.56151 | 5768 ft | 240 kts | 31° |
| 2026-04-30 12:03 | 29.70283 | -95.54260 | 5308 ft | 227 kts | 30° |
| 2026-04-30 12:03 | 29.71620 | -95.53345 | 5078 ft | 219 kts | 30° |
| 2026-04-30 12:04 | 29.72893 | -95.52458 | 4848 ft | 210 kts | 31° |
| 2026-04-30 12:04 | 29.73495 | -95.52035 | 4750 ft | 208 kts | 31° |
| 2026-04-30 12:04 | 29.74724 | -95.51169 | 4536 ft | 207 kts | 32° |
| 2026-04-30 12:04 | 29.75955 | -95.50295 | 4326 ft | 209 kts | 32° |
| 2026-04-30 12:05 | 29.77007 | -95.49547 | 4151 ft | 206 kts | 31° |
| 2026-04-30 12:06 | 29.77367 | -95.49292 | 4083 ft | 204 kts | 32° |
| 2026-04-30 12:06 | 29.78463 | -95.48298 | 3850 ft | 200 kts | 55° |
| 2026-04-30 12:07 | 29.78915 | -95.46840 | 3668 ft | 194 kts | 95° |
| 2026-04-30 12:07 | 29.78431 | -95.45450 | 3545 ft | 188 kts | 124° |
| 2026-04-30 12:07 | 29.77726 | -95.44180 | 3314 ft | 192 kts | 126° |
| 2026-04-30 12:07 | 29.76949 | -95.42953 | 3116 ft | 189 kts | 128° |
| 2026-04-30 12:08 | 29.76123 | -95.41760 | 2912 ft | 186 kts | 132° |
| 2026-04-30 12:08 | 29.75264 | -95.40676 | 2771 ft | 188 kts | 134° |
| 2026-04-30 12:08 | 29.74343 | -95.39568 | 2617 ft | 193 kts | 135° |
| 2026-04-30 12:08 | 29.73416 | -95.38465 | 2379 ft | 190 kts | 134° |
| 2026-04-30 12:09 | 29.72578 | -95.37305 | 2063 ft | 189 kts | 128° |
| 2026-04-30 12:09 | 29.71704 | -95.36193 | 1792 ft | 185 kts | 135° |
| 2026-04-30 12:09 | 29.70789 | -95.35121 | 1581 ft | 185 kts | 136° |
| 2026-04-30 12:09 | 29.69864 | -95.34115 | 1435 ft | 184 kts | 137° |
| 2026-04-30 12:10 | 29.68983 | -95.33156 | 1308 ft | 170 kts | 136° |
| 2026-04-30 12:10 | 29.68160 | -95.32211 | 1022 ft | 164 kts | 134° |
| 2026-04-30 12:10 | 29.67387 | -95.31269 | 812 ft | 159 kts | 132° |
| 2026-04-30 12:10 | 29.66615 | -95.30354 | 636 ft | 161 kts | 135° |
| 2026-04-30 12:11 | 29.65847 | -95.29424 | 405 ft | 158 kts | 135° |
| 2026-04-30 12:11 | 29.65093 | -95.28537 | 154 ft | 152 kts | 136° |
| 2026-04-30 12:11 | 29.64393 | -95.27717 | 47 ft | 110 kts | 134° |
| 2026-04-30 12:11 | 29.64034 | -95.27299 | 49 ft | 62 kts | 134° |
| 2026-04-30 12:12 | 29.63921 | -95.27007 | 50 ft | 6 kts | 87° |
| 2026-04-30 12:12 | 29.63922 | -95.27006 | 50 ft | 0 kts | 87° |